sensor_id;sensor_type;location;lat;lon;timestamp;pressure;altitude;pressure_sealevel;temperature;humidity
75006;BME280;63553;51.814;4.600;2023-04-24T00:01:21;100088.00;;;15.56;67.63
75006;BME280;63553;51.814;4.600;2023-04-24T00:03:46;100087.22;;;15.55;67.53
75006;BME280;63553;51.814;4.600;2023-04-24T00:06:11;100101.22;;;15.55;67.67
75006;BME280;63553;51.814;4.600;2023-04-24T00:08:36;100096.03;;;15.57;67.49
75006;BME280;63553;51.814;4.600;2023-04-24T00:11:02;100093.59;;;15.56;67.51
75006;BME280;63553;51.814;4.600;2023-04-24T00:13:28;100093.59;;;15.56;67.59
75006;BME280;63553;51.814;4.600;2023-04-24T00:15:54;100089.56;;;15.53;67.61
75006;BME280;63553;51.814;4.600;2023-04-24T00:18:20;100097.59;;;15.55;67.72
75006;BME280;63553;51.814;4.600;2023-04-24T00:20:45;100093.59;;;15.56;67.64
75006;BME280;63553;51.814;4.600;2023-04-24T00:23:11;100102.00;;;15.56;67.62
75006;BME280;63553;51.814;4.600;2023-04-24T00:25:37;100096.41;;;15.56;67.64
75006;BME280;63553;51.814;4.600;2023-04-24T00:28:02;100099.66;;;15.58;67.53
75006;BME280;63553;51.814;4.600;2023-04-24T00:30:28;100095.63;;;15.55;67.47
75006;BME280;63553;51.814;4.600;2023-04-24T00:32:53;100100.81;;;15.57;67.50
75006;BME280;63553;51.814;4.600;2023-04-24T00:35:19;100098.84;;;15.57;67.44
75006;BME280;63553;51.814;4.600;2023-04-24T00:37:45;100090.78;;;15.56;67.50
75006;BME280;63553;51.814;4.600;2023-04-24T00:40:10;100090.00;;;15.55;67.53
75006;BME280;63553;51.814;4.600;2023-04-24T00:42:36;100098.03;;;15.57;67.49
75006;BME280;63553;51.814;4.600;2023-04-24T00:45:02;100098.03;;;15.57;67.49
75006;BME280;63553;51.814;4.600;2023-04-24T00:47:28;100093.25;;;15.57;67.42
75006;BME280;63553;51.814;4.600;2023-04-24T00:49:54;100088.81;;;15.56;67.49
75006;BME280;63553;51.814;4.600;2023-04-24T00:52:20;100098.03;;;15.57;67.52
75006;BME280;63553;51.814;4.600;2023-04-24T00:54:45;100100.00;;;15.56;67.33
75006;BME280;63553;51.814;4.600;2023-04-24T00:57:11;100096.03;;;15.57;67.43
75006;BME280;63553;51.814;4.600;2023-04-24T00:59:37;100098.84;;;15.57;67.29
75006;BME280;63553;51.814;4.600;2023-04-24T01:02:03;100096.03;;;15.57;67.35
75006;BME280;63553;51.814;4.600;2023-04-24T01:04:28;100092.84;;;15.59;67.43
75006;BME280;63553;51.814;4.600;2023-04-24T01:06:54;100098.44;;;15.59;67.30
75006;BME280;63553;51.814;4.600;2023-04-24T01:09:23;100092.06;;;15.59;67.24
75006;BME280;63553;51.814;4.600;2023-04-24T01:11:49;100089.63;;;15.57;67.28
75006;BME280;63553;51.814;4.600;2023-04-24T01:14:15;100092.84;;;15.59;67.24
75006;BME280;63553;51.814;4.600;2023-04-24T01:16:40;100089.63;;;15.57;67.37
75006;BME280;63553;51.814;4.600;2023-04-24T01:19:06;100089.63;;;15.57;67.22
75006;BME280;63553;51.814;4.600;2023-04-24T01:21:34;100088.00;;;15.56;67.38
75006;BME280;63553;51.814;4.600;2023-04-24T01:24:01;100099.28;;;15.60;67.23
75006;BME280;63553;51.814;4.600;2023-04-24T01:26:27;100087.63;;;15.57;67.33
75006;BME280;63553;51.814;4.600;2023-04-24T01:28:52;100092.84;;;15.59;67.31
75006;BME280;63553;51.814;4.600;2023-04-24T01:31:18;100087.63;;;15.57;67.13
75006;BME280;63553;51.814;4.600;2023-04-24T01:33:43;100088.44;;;15.58;67.24
75006;BME280;63553;51.814;4.600;2023-04-24T01:36:10;100083.94;;;15.53;67.19
75006;BME280;63553;51.814;4.600;2023-04-24T01:38:35;100093.66;;;15.60;67.18
75006;BME280;63553;51.814;4.600;2023-04-24T01:41:01;100099.28;;;15.60;67.29
75006;BME280;63553;51.814;4.600;2023-04-24T01:43:26;100088.44;;;15.58;67.08
75006;BME280;63553;51.814;4.600;2023-04-24T01:45:51;100092.84;;;15.59;67.28
75006;BME280;63553;51.814;4.600;2023-04-24T01:48:17;100087.25;;;15.59;67.22
75006;BME280;63553;51.814;4.600;2023-04-24T01:50:42;100086.00;;;15.56;67.14
75006;BME280;63553;51.814;4.600;2023-04-24T01:53:08;100080.84;;;15.59;67.16
75006;BME280;63553;51.814;4.600;2023-04-24T01:55:33;100091.69;;;15.60;67.27
75006;BME280;63553;51.814;4.600;2023-04-24T01:57:59;100083.25;;;15.60;67.04
75006;BME280;63553;51.814;4.600;2023-04-24T02:00:25;100082.91;;;15.62;67.08
75006;BME280;63553;51.814;4.600;2023-04-24T02:02:50;100083.25;;;15.60;67.12
75006;BME280;63553;51.814;4.600;2023-04-24T02:05:15;100088.88;;;15.60;67.06
75006;BME280;63553;51.814;4.600;2023-04-24T02:07:41;100082.44;;;15.60;67.10
75006;BME280;63553;51.814;4.600;2023-04-24T02:10:06;100074.44;;;15.58;67.15
75006;BME280;63553;51.814;4.600;2023-04-24T02:12:32;100080.84;;;15.59;67.00
75006;BME280;63553;51.814;4.600;2023-04-24T02:14:57;100069.66;;;15.59;66.82
75006;BME280;63553;51.814;4.600;2023-04-24T02:17:23;100080.84;;;15.59;66.84
75006;BME280;63553;51.814;4.600;2023-04-24T02:19:48;100077.59;;;15.56;66.99
75006;BME280;63553;51.814;4.600;2023-04-24T02:22:13;100073.22;;;15.59;67.05
75006;BME280;63553;51.814;4.600;2023-04-24T02:24:39;100068.84;;;15.58;67.10
75006;BME280;63553;51.814;4.600;2023-04-24T02:27:05;100074.44;;;15.58;67.16
75006;BME280;63553;51.814;4.600;2023-04-24T02:29:30;100075.25;;;15.59;67.13
75006;BME280;63553;51.814;4.600;2023-04-24T02:31:56;100071.63;;;15.58;67.00
75006;BME280;63553;51.814;4.600;2023-04-24T02:34:21;100063.22;;;15.58;67.00
75006;BME280;63553;51.814;4.600;2023-04-24T02:36:48;100055.63;;;15.59;66.98
75006;BME280;63553;51.814;4.600;2023-04-24T02:39:14;100052.03;;;15.58;66.87
75006;BME280;63553;51.814;4.600;2023-04-24T02:41:41;100063.22;;;15.58;66.80
75006;BME280;63553;51.814;4.600;2023-04-24T02:44:06;100051.19;;;15.57;66.84
75006;BME280;63553;51.814;4.600;2023-04-24T02:46:32;100064.41;;;15.57;67.36
75006;BME280;63553;51.814;4.600;2023-04-24T02:48:57;100062.34;;;15.54;66.81
75006;BME280;63553;51.814;4.600;2023-04-24T02:51:22;100066.78;;;15.55;66.93
75006;BME280;63553;51.814;4.600;2023-04-24T02:53:48;100080.72;;;15.51;67.00
75006;BME280;63553;51.814;4.600;2023-04-24T02:56:13;100075.94;;;15.52;67.11
75006;BME280;63553;51.814;4.600;2023-04-24T02:58:39;100071.16;;;15.52;67.01
75006;BME280;63553;51.814;4.600;2023-04-24T03:01:04;100073.56;;;15.54;66.99
75006;BME280;63553;51.814;4.600;2023-04-24T03:03:30;100074.38;;;15.54;67.10
75006;BME280;63553;51.814;4.600;2023-04-24T03:05:55;100070.41;;;15.55;66.97
75006;BME280;63553;51.814;4.600;2023-04-24T03:08:20;100070.75;;;15.54;67.07
75006;BME280;63553;51.814;4.600;2023-04-24T03:10:46;100073.56;;;15.54;66.97
75006;BME280;63553;51.814;4.600;2023-04-24T03:13:11;100079.16;;;15.54;67.01
75006;BME280;63553;51.814;4.600;2023-04-24T03:15:37;100077.53;;;15.53;66.80
75006;BME280;63553;51.814;4.600;2023-04-24T03:18:02;100081.16;;;15.53;67.15
75006;BME280;63553;51.814;4.600;2023-04-24T03:20:27;100081.59;;;15.55;66.87
75006;BME280;63553;51.814;4.600;2023-04-24T03:22:53;100089.63;;;15.57;67.22
75006;BME280;63553;51.814;4.600;2023-04-24T03:25:18;100076.00;;;15.55;66.92
75006;BME280;63553;51.814;4.600;2023-04-24T03:27:44;100094.78;;;15.55;66.98
75006;BME280;63553;51.814;4.600;2023-04-24T03:30:10;100092.81;;;15.55;66.97
75006;BME280;63553;51.814;4.600;2023-04-24T03:32:35;100095.63;;;15.55;66.93
75006;BME280;63553;51.814;4.600;2023-04-24T03:35:00;100093.59;;;15.56;66.79
75006;BME280;63553;51.814;4.600;2023-04-24T03:37:26;100092.81;;;15.55;66.64
75006;BME280;63553;51.814;4.600;2023-04-24T03:39:51;100087.56;;;15.54;66.88
75006;BME280;63553;51.814;4.600;2023-04-24T03:42:17;100089.19;;;15.55;66.75
75006;BME280;63553;51.814;4.600;2023-04-24T03:44:42;100087.22;;;15.55;66.78
75006;BME280;63553;51.814;4.600;2023-04-24T03:47:07;100077.59;;;15.56;66.97
75006;BME280;63553;51.814;4.600;2023-04-24T03:49:32;100066.78;;;15.55;66.62
75006;BME280;63553;51.814;4.600;2023-04-24T03:51:58;100067.94;;;15.54;66.71
75006;BME280;63553;51.814;4.600;2023-04-24T03:54:23;100065.97;;;15.54;66.78
75006;BME280;63553;51.814;4.600;2023-04-24T03:56:48;100067.59;;;15.55;66.73
75006;BME280;63553;51.814;4.600;2023-04-24T03:59:14;100067.94;;;15.54;66.83
75006;BME280;63553;51.814;4.600;2023-04-24T04:01:39;100081.16;;;15.53;66.40
75006;BME280;63553;51.814;4.600;2023-04-24T04:04:08;100081.53;;;15.52;66.39
75006;BME280;63553;51.814;4.600;2023-04-24T04:06:33;100079.78;;;15.67;67.53
75006;BME280;63553;51.814;4.600;2023-04-24T04:08:59;100085.56;;;15.77;68.59
75006;BME280;63553;51.814;4.600;2023-04-24T04:11:24;100088.06;;;15.82;69.60
75006;BME280;63553;51.814;4.600;2023-04-24T04:13:50;100095.72;;;15.85;69.24
75006;BME280;63553;51.814;4.600;2023-04-24T04:16:16;100101.31;;;15.85;68.67
75006;BME280;63553;51.814;4.600;2023-04-24T04:18:44;100107.69;;;15.82;68.36
75006;BME280;63553;51.814;4.600;2023-04-24T04:21:10;100114.47;;;15.81;68.15
75006;BME280;63553;51.814;4.600;2023-04-24T04:23:36;100106.00;;;15.78;67.96
75006;BME280;63553;51.814;4.600;2023-04-24T04:26:02;100110.78;;;15.77;68.06
75006;BME280;63553;51.814;4.600;2023-04-24T04:28:28;100123.56;;;15.75;67.95
75006;BME280;63553;51.814;4.600;2023-04-24T04:30:53;100121.13;;;15.73;68.06
75006;BME280;63553;51.814;4.600;2023-04-24T04:33:20;100134.34;;;15.73;68.07
75006;BME280;63553;51.814;4.600;2023-04-24T04:35:46;100125.06;;;15.69;67.94
75006;BME280;63553;51.814;4.600;2023-04-24T04:38:14;100124.22;;;15.68;67.89
75006;BME280;63553;51.814;4.600;2023-04-24T04:40:40;100133.84;;;15.67;67.40
75006;BME280;63553;51.814;4.600;2023-04-24T04:43:05;100134.59;;;15.64;67.17
75006;BME280;63553;51.814;4.600;2023-04-24T04:45:31;100144.59;;;15.65;67.00
75006;BME280;63553;51.814;4.600;2023-04-24T04:47:58;100148.41;;;15.76;67.17
75006;BME280;63553;51.814;4.600;2023-04-24T04:50:26;100165.25;;;15.76;66.48
75006;BME280;63553;51.814;4.600;2023-04-24T04:52:51;100172.03;;;15.75;66.14
75006;BME280;63553;51.814;4.600;2023-04-24T04:55:17;100178.88;;;15.78;66.58
75006;BME280;63553;51.814;4.600;2023-04-24T04:57:43;100183.38;;;15.82;67.36
75006;BME280;63553;51.814;4.600;2023-04-24T05:00:09;100223.34;;;15.79;65.80
75006;BME280;63553;51.814;4.600;2023-04-24T05:02:35;100212.94;;;15.80;65.29
75006;BME280;63553;51.814;4.600;2023-04-24T05:05:00;100220.56;;;15.79;65.04
75006;BME280;63553;51.814;4.600;2023-04-24T05:07:26;100220.47;;;15.76;64.86
75006;BME280;63553;51.814;4.600;2023-04-24T05:09:51;100232.06;;;15.74;64.80
75006;BME280;63553;51.814;4.600;2023-04-24T05:12:17;100231.63;;;15.72;64.65
75006;BME280;63553;51.814;4.600;2023-04-24T05:14:42;100243.97;;;15.68;64.71
75006;BME280;63553;51.814;4.600;2023-04-24T05:17:08;100256.34;;;15.67;64.41
75006;BME280;63553;51.814;4.600;2023-04-24T05:19:33;100259.50;;;15.65;64.69
75006;BME280;63553;51.814;4.600;2023-04-24T05:22:01;100270.66;;;15.62;64.29
75006;BME280;63553;51.814;4.600;2023-04-24T05:24:28;100272.25;;;15.63;64.30
75006;BME280;63553;51.814;4.600;2023-04-24T05:26:53;100272.19;;;15.59;64.21
75006;BME280;63553;51.814;4.600;2023-04-24T05:29:19;100288.22;;;15.59;64.12
75006;BME280;63553;51.814;4.600;2023-04-24T05:31:44;100284.59;;;15.58;64.13
75006;BME280;63553;51.814;4.600;2023-04-24T05:34:09;100305.38;;;15.57;64.13
75006;BME280;63553;51.814;4.600;2023-04-24T05:36:35;100300.94;;;15.56;64.06
75006;BME280;63553;51.814;4.600;2023-04-24T05:39:00;100320.13;;;15.54;64.06
75006;BME280;63553;51.814;4.600;2023-04-24T05:41:26;100323.31;;;15.52;64.08
75006;BME280;63553;51.814;4.600;2023-04-24T05:43:51;100328.09;;;15.52;64.02
75006;BME280;63553;51.814;4.600;2023-04-24T05:46:16;100342.13;;;15.52;63.90
75006;BME280;63553;51.814;4.600;2023-04-24T05:48:41;100338.88;;;15.50;63.98
75006;BME280;63553;51.814;4.600;2023-04-24T05:51:07;100356.84;;;15.49;63.75
75006;BME280;63553;51.814;4.600;2023-04-24T05:53:32;100365.25;;;15.49;63.46
75006;BME280;63553;51.814;4.600;2023-04-24T05:55:58;100355.56;;;15.46;63.42
75006;BME280;63553;51.814;4.600;2023-04-24T05:58:23;100368.41;;;15.47;63.31
75006;BME280;63553;51.814;4.600;2023-04-24T06:00:48;100384.75;;;15.45;63.24
75006;BME280;63553;51.814;4.600;2023-04-24T06:03:14;100385.56;;;15.46;63.12
75006;BME280;63553;51.814;4.600;2023-04-24T06:05:40;100397.59;;;15.46;63.15
75006;BME280;63553;51.814;4.600;2023-04-24T06:08:05;100403.66;;;15.48;63.18
75006;BME280;63553;51.814;4.600;2023-04-24T06:10:31;100416.88;;;15.48;63.41
75006;BME280;63553;51.814;4.600;2023-04-24T06:12:57;100419.19;;;15.46;63.49
75006;BME280;63553;51.814;4.600;2023-04-24T06:15:27;100420.88;;;15.47;63.73
75006;BME280;63553;51.814;4.600;2023-04-24T06:17:53;100421.19;;;15.45;63.66
75006;BME280;63553;51.814;4.600;2023-04-24T06:20:19;100428.88;;;15.48;63.81
75006;BME280;63553;51.814;4.600;2023-04-24T06:22:44;100445.06;;;15.55;64.90
75006;BME280;63553;51.814;4.600;2023-04-24T06:25:10;100457.16;;;15.59;65.32
75006;BME280;63553;51.814;4.600;2023-04-24T06:27:35;100459.94;;;15.59;64.91
75006;BME280;63553;51.814;4.600;2023-04-24T06:30:01;100461.97;;;15.59;64.15
75006;BME280;63553;51.814;4.600;2023-04-24T06:32:26;100476.75;;;15.59;63.76
75006;BME280;63553;51.814;4.600;2023-04-24T06:34:52;100466.75;;;15.58;63.54
75006;BME280;63553;51.814;4.600;2023-04-24T06:37:19;100499.56;;;15.57;63.32
75006;BME280;63553;51.814;4.600;2023-04-24T06:39:45;100493.50;;;15.55;62.90
75006;BME280;63553;51.814;4.600;2023-04-24T06:42:11;100503.53;;;15.56;63.01
75006;BME280;63553;51.814;4.600;2023-04-24T06:44:36;100508.78;;;15.58;62.98
75006;BME280;63553;51.814;4.600;2023-04-24T06:47:06;100506.31;;;15.56;62.92
75006;BME280;63553;51.814;4.600;2023-04-24T06:49:32;100517.19;;;15.58;62.98
75006;BME280;63553;51.814;4.600;2023-04-24T06:51:58;100509.94;;;15.57;62.90
75006;BME280;63553;51.814;4.600;2023-04-24T06:54:23;100523.97;;;15.57;62.81
75006;BME280;63553;51.814;4.600;2023-04-24T06:56:48;100532.81;;;15.59;63.03
75006;BME280;63553;51.814;4.600;2023-04-24T06:59:15;100546.38;;;15.57;62.85
75006;BME280;63553;51.814;4.600;2023-04-24T07:01:40;100538.78;;;15.57;62.98
75006;BME280;63553;51.814;4.600;2023-04-24T07:04:06;100539.13;;;15.56;63.01
75006;BME280;63553;51.814;4.600;2023-04-24T07:06:31;100546.75;;;15.55;62.79
75006;BME280;63553;51.814;4.600;2023-04-24T07:08:57;100553.25;;;15.60;63.13
75006;BME280;63553;51.814;4.600;2023-04-24T07:11:23;100562.91;;;15.62;63.58
75006;BME280;63553;51.814;4.600;2023-04-24T07:13:48;100564.63;;;15.67;64.11
75006;BME280;63553;51.814;4.600;2023-04-24T07:16:14;100554.78;;;15.73;64.54
75006;BME280;63553;51.814;4.600;2023-04-24T07:18:39;100576.72;;;15.86;64.95
75006;BME280;63553;51.814;4.600;2023-04-24T07:21:04;100571.09;;;16.02;64.93
75006;BME280;63553;51.814;4.600;2023-04-24T07:23:31;100573.56;;;16.23;64.82
75006;BME280;63553;51.814;4.600;2023-04-24T07:25:56;100576.13;;;16.47;64.42
75006;BME280;63553;51.814;4.600;2023-04-24T07:28:21;100584.13;;;16.64;63.70
75006;BME280;63553;51.814;4.600;2023-04-24T07:30:47;100582.78;;;16.96;62.56
75006;BME280;63553;51.814;4.600;2023-04-24T07:33:12;100599.38;;;17.24;61.79
75006;BME280;63553;51.814;4.600;2023-04-24T07:35:38;100613.50;;;17.50;61.49
75006;BME280;63553;51.814;4.600;2023-04-24T07:38:03;100611.16;;;17.75;60.29
75006;BME280;63553;51.814;4.600;2023-04-24T07:40:29;100622.84;;;18.03;59.80
75006;BME280;63553;51.814;4.600;2023-04-24T07:42:54;100617.63;;;18.28;58.67
75006;BME280;63553;51.814;4.600;2023-04-24T07:45:20;100629.66;;;18.51;58.45
75006;BME280;63553;51.814;4.600;2023-04-24T07:47:45;100619.53;;;18.76;57.65
75006;BME280;63553;51.814;4.600;2023-04-24T07:50:11;100625.06;;;18.99;56.83
75006;BME280;63553;51.814;4.600;2023-04-24T07:52:38;100622.91;;;19.22;55.89
75006;BME280;63553;51.814;4.600;2023-04-24T07:55:04;100629.13;;;19.38;55.13
75006;BME280;63553;51.814;4.600;2023-04-24T07:57:30;100640.63;;;19.56;54.57
75006;BME280;63553;51.814;4.600;2023-04-24T07:59:55;100653.66;;;19.71;53.75
75006;BME280;63553;51.814;4.600;2023-04-24T08:02:20;100648.09;;;19.82;53.19
75006;BME280;63553;51.814;4.600;2023-04-24T08:04:51;100656.69;;;19.96;52.58
75006;BME280;63553;51.814;4.600;2023-04-24T08:07:16;100658.41;;;20.08;52.48
75006;BME280;63553;51.814;4.600;2023-04-24T08:09:42;100662.56;;;20.24;52.31
75006;BME280;63553;51.814;4.600;2023-04-24T08:12:07;100664.31;;;20.36;51.38
75006;BME280;63553;51.814;4.600;2023-04-24T08:14:32;100667.19;;;20.46;50.89
75006;BME280;63553;51.814;4.600;2023-04-24T08:16:57;100677.78;;;20.60;50.50
75006;BME280;63553;51.814;4.600;2023-04-24T08:19:25;100679.09;;;20.77;50.32
75006;BME280;63553;51.814;4.600;2023-04-24T08:21:50;100686.00;;;20.83;49.66
75006;BME280;63553;51.814;4.600;2023-04-24T08:24:16;100691.28;;;20.91;50.16
75006;BME280;63553;51.814;4.600;2023-04-24T08:26:41;100698.16;;;20.90;50.28
75006;BME280;63553;51.814;4.600;2023-04-24T08:29:06;100691.25;;;20.88;49.83
75006;BME280;63553;51.814;4.600;2023-04-24T08:31:32;100702.59;;;20.91;49.94
75006;BME280;63553;51.814;4.600;2023-04-24T08:33:57;100704.22;;;20.92;49.52
75006;BME280;63553;51.814;4.600;2023-04-24T08:36:23;100721.56;;;20.87;49.52
75006;BME280;63553;51.814;4.600;2023-04-24T08:38:49;100715.84;;;20.80;49.22
75006;BME280;63553;51.814;4.600;2023-04-24T08:41:14;100725.50;;;20.72;49.44
75006;BME280;63553;51.814;4.600;2023-04-24T08:43:41;100739.19;;;20.67;49.52
75006;BME280;63553;51.814;4.600;2023-04-24T08:46:06;100727.81;;;20.60;49.52
75006;BME280;63553;51.814;4.600;2023-04-24T08:48:32;100749.16;;;20.54;49.54
75006;BME280;63553;51.814;4.600;2023-04-24T08:50:58;100753.94;;;20.46;49.20
75006;BME280;63553;51.814;4.600;2023-04-24T08:53:24;100752.69;;;20.40;49.21
75006;BME280;63553;51.814;4.600;2023-04-24T08:55:51;100752.22;;;20.34;49.13
75006;BME280;63553;51.814;4.600;2023-04-24T08:58:17;100746.53;;;20.27;49.34
75006;BME280;63553;51.814;4.600;2023-04-24T09:00:43;100746.47;;;20.24;49.65
75006;BME280;63553;51.814;4.600;2023-04-24T09:03:13;100752.06;;;20.20;49.66
75006;BME280;63553;51.814;4.600;2023-04-24T09:05:39;100750.81;;;20.14;49.53
75006;BME280;63553;51.814;4.600;2023-04-24T09:08:06;100756.88;;;20.16;50.10
75006;BME280;63553;51.814;4.600;2023-04-24T09:10:34;100759.63;;;20.09;54.50
75006;BME280;63553;51.814;4.600;2023-04-24T09:13:00;100765.66;;;20.08;56.03
75006;BME280;63553;51.814;4.600;2023-04-24T09:15:27;100771.66;;;20.03;57.47
75006;BME280;63553;51.814;4.600;2023-04-24T09:17:52;100764.75;;;19.96;59.25
75006;BME280;63553;51.814;4.600;2023-04-24T09:20:18;100765.06;;;19.88;59.08
75006;BME280;63553;51.814;4.600;2023-04-24T09:22:44;100776.31;;;19.84;62.23
75006;BME280;63553;51.814;4.600;2023-04-24T09:25:10;100786.75;;;19.80;54.72
75006;BME280;63553;51.814;4.600;2023-04-24T09:27:41;100794.78;;;19.78;57.49
75006;BME280;63553;51.814;4.600;2023-04-24T09:30:07;100791.19;;;19.81;57.65
75006;BME280;63553;51.814;4.600;2023-04-24T09:32:33;100813.00;;;19.84;77.37
75006;BME280;63553;51.814;4.600;2023-04-24T09:35:10;100802.09;;;19.83;63.12
75006;BME280;63553;51.814;4.600;2023-04-24T09:37:46;100805.44;;;19.92;78.52
75006;BME280;63553;51.814;4.600;2023-04-24T09:40:18;100797.84;;;20.00;67.48
75006;BME280;63553;51.814;4.600;2023-04-24T09:42:54;100807.34;;;20.21;68.38
75006;BME280;63553;51.814;4.600;2023-04-24T09:45:20;100809.69;;;20.52;68.66
75006;BME280;63553;51.814;4.600;2023-04-24T09:47:46;100825.00;;;20.48;60.09
75006;BME280;63553;51.814;4.600;2023-04-24T09:50:16;100818.44;;;20.37;58.63
75006;BME280;63553;51.814;4.600;2023-04-24T09:52:56;100817.38;;;20.15;58.17
75006;BME280;63553;51.814;4.600;2023-04-24T09:55:22;100842.59;;;19.98;58.64
75006;BME280;63553;51.814;4.600;2023-04-24T09:57:51;100840.75;;;19.79;58.62
75006;BME280;63553;51.814;4.600;2023-04-24T10:00:19;100838.53;;;19.62;57.57
75006;BME280;63553;51.814;4.600;2023-04-24T10:02:49;100839.53;;;19.47;56.77
75006;BME280;63553;51.814;4.600;2023-04-24T10:05:15;100845.41;;;19.38;56.31
75006;BME280;63553;51.814;4.600;2023-04-24T10:07:40;100845.31;;;19.31;59.17
75006;BME280;63553;51.814;4.600;2023-04-24T10:10:06;100843.25;;;19.28;58.87
75006;BME280;63553;51.814;4.600;2023-04-24T10:12:32;100846.47;;;19.26;58.01
75006;BME280;63553;51.814;4.600;2023-04-24T10:14:58;100848.84;;;19.24;57.79
75006;BME280;63553;51.814;4.600;2023-04-24T10:17:24;100852.16;;;19.30;57.05
75006;BME280;63553;51.814;4.600;2023-04-24T10:19:51;100851.75;;;19.31;55.74
75006;BME280;63553;51.814;4.600;2023-04-24T10:22:17;100859.03;;;19.32;54.99
75006;BME280;63553;51.814;4.600;2023-04-24T10:24:43;100852.53;;;19.28;54.21
75006;BME280;63553;51.814;4.600;2023-04-24T10:27:10;100866.09;;;19.19;54.00
75006;BME280;63553;51.814;4.600;2023-04-24T10:29:35;100869.94;;;19.08;53.83
75006;BME280;63553;51.814;4.600;2023-04-24T10:32:01;100867.72;;;18.94;54.55
75006;BME280;63553;51.814;4.600;2023-04-24T10:34:26;100870.72;;;18.82;54.57
75006;BME280;63553;51.814;4.600;2023-04-24T10:36:53;100875.34;;;18.71;53.97
75006;BME280;63553;51.814;4.600;2023-04-24T10:39:21;100884.06;;;18.62;54.09
75006;BME280;63553;51.814;4.600;2023-04-24T10:41:48;100883.50;;;18.53;54.59
75006;BME280;63553;51.814;4.600;2023-04-24T10:44:15;100888.53;;;18.44;54.38
75006;BME280;63553;51.814;4.600;2023-04-24T10:46:46;100889.59;;;18.36;54.81
75006;BME280;63553;51.814;4.600;2023-04-24T10:49:14;100893.88;;;18.30;54.85
75006;BME280;63553;51.814;4.600;2023-04-24T10:51:51;100897.44;;;18.27;54.72
75006;BME280;63553;51.814;4.600;2023-04-24T10:54:25;100894.72;;;18.30;54.98
75006;BME280;63553;51.814;4.600;2023-04-24T10:56:51;100888.72;;;18.32;54.43
75006;BME280;63553;51.814;4.600;2023-04-24T10:59:35;100887.16;;;18.35;54.83
75006;BME280;63553;51.814;4.600;2023-04-24T11:02:00;100891.59;;;18.36;55.25
75006;BME280;63553;51.814;4.600;2023-04-24T11:04:30;100886.03;;;18.39;54.22
75006;BME280;63553;51.814;4.600;2023-04-24T11:06:56;100889.34;;;18.45;52.93
75006;BME280;63553;51.814;4.600;2023-04-24T11:09:22;100907.47;;;18.47;52.45
75006;BME280;63553;51.814;4.600;2023-04-24T11:11:47;100910.63;;;18.42;52.26
75006;BME280;63553;51.814;4.600;2023-04-24T11:14:16;100906.91;;;18.38;52.15
75006;BME280;63553;51.814;4.600;2023-04-24T11:16:51;100908.94;;;18.38;51.80
75006;BME280;63553;51.814;4.600;2023-04-24T11:22:33;100915.59;;;18.29;52.41
75006;BME280;63553;51.814;4.600;2023-04-24T11:29:46;100943.34;;;18.08;52.04
75006;BME280;63553;51.814;4.600;2023-04-24T11:32:16;100949.16;;;18.00;52.35
75006;BME280;63553;51.814;4.600;2023-04-24T11:35:07;100960.28;;;17.93;52.52
75006;BME280;63553;51.814;4.600;2023-04-24T11:37:38;100955.31;;;17.86;52.56
75006;BME280;63553;51.814;4.600;2023-04-24T11:40:06;100958.84;;;17.83;52.55
75006;BME280;63553;51.814;4.600;2023-04-24T11:42:37;100958.34;;;17.77;52.39
75006;BME280;63553;51.814;4.600;2023-04-24T11:45:10;100965.88;;;17.73;52.74
75006;BME280;63553;51.814;4.600;2023-04-24T11:47:36;100962.63;;;17.71;52.58
75006;BME280;63553;51.814;4.600;2023-04-24T11:50:03;100984.28;;;17.71;52.42
75006;BME280;63553;51.814;4.600;2023-04-24T11:52:29;100987.63;;;17.76;52.46
75006;BME280;63553;51.814;4.600;2023-04-24T11:54:55;100978.09;;;17.81;52.22
75006;BME280;63553;51.814;4.600;2023-04-24T11:57:22;100993.56;;;17.91;52.04
75006;BME280;63553;51.814;4.600;2023-04-24T11:59:49;100983.97;;;17.92;53.37
75006;BME280;63553;51.814;4.600;2023-04-24T12:02:25;100994.56;;;17.98;53.82
75006;BME280;63553;51.814;4.600;2023-04-24T12:04:52;101002.44;;;18.08;54.24
75006;BME280;63553;51.814;4.600;2023-04-24T12:07:17;101001.38;;;18.16;53.83
75006;BME280;63553;51.814;4.600;2023-04-24T12:09:44;101003.97;;;18.25;53.74
75006;BME280;63553;51.814;4.600;2023-04-24T12:12:11;100997.69;;;18.31;53.64
75006;BME280;63553;51.814;4.600;2023-04-24T12:14:52;100998.19;;;18.37;53.13
75006;BME280;63553;51.814;4.600;2023-04-24T12:17:33;100995.06;;;18.42;53.11
75006;BME280;63553;51.814;4.600;2023-04-24T12:22:25;101010.59;;;18.52;52.40
75006;BME280;63553;51.814;4.600;2023-04-24T12:25:02;101009.41;;;18.53;52.63
75006;BME280;63553;51.814;4.600;2023-04-24T12:27:34;101012.75;;;18.58;51.41
75006;BME280;63553;51.814;4.600;2023-04-24T12:30:02;101016.38;;;18.59;51.51
75006;BME280;63553;51.814;4.600;2023-04-24T12:32:28;101023.63;;;18.60;51.47
75006;BME280;63553;51.814;4.600;2023-04-24T12:34:54;101020.81;;;18.60;51.39
75006;BME280;63553;51.814;4.600;2023-04-24T12:37:20;101025.25;;;18.61;51.16
75006;BME280;63553;51.814;4.600;2023-04-24T12:40:01;101024.94;;;18.66;51.15
75006;BME280;63553;51.814;4.600;2023-04-24T12:42:28;101027.47;;;18.71;50.82
75006;BME280;63553;51.814;4.600;2023-04-24T12:44:59;101022.66;;;18.71;51.91
75006;BME280;63553;51.814;4.600;2023-04-24T12:47:25;101020.22;;;18.70;51.02
75006;BME280;63553;51.814;4.600;2023-04-24T12:49:51;101027.09;;;18.72;52.44
75006;BME280;63553;51.814;4.600;2023-04-24T12:52:21;101023.47;;;18.72;52.47
75006;BME280;63553;51.814;4.600;2023-04-24T12:54:46;101023.47;;;18.72;52.75
75006;BME280;63553;51.814;4.600;2023-04-24T12:57:12;101026.72;;;18.74;52.53